Boston, Massachusetts
Traffic Map
Current Weather Conditions
Boston, Massachusetts
Scattered Clouds
Scattered Clouds
29°
Feels Like: 24°
Wind Chill: 24° Ceiling: Unl
Heat Index: 29° Visibility: 10mi
Dew Point: 23° Wind: 5mph
Humidity: 78% Direction: 210° (SSW)
Pressure: 30.54in Gusts: 0mph
Raw Report DataKBOS 190954Z 21004KT 10SM SCT250 M02/M05 A3054 RMK AO2 SLP342 T10171050
Traffic Incident Summary
Active as of:
Severity:
Category:
InformationThere was an issue retrieving the traffic information for this location. Please try a different location or try again shortly.
Advertisements